createdAt,value
2022-11-20T00:00:31.140Z,5.53
2022-11-20T00:02:57.752Z,5.13
2022-11-20T00:05:24.412Z,4.97
2022-11-20T00:07:51.062Z,5.63
2022-11-20T00:10:17.922Z,5.33
2022-11-20T00:12:44.611Z,5.60
2022-11-20T00:15:11.305Z,4.50
2022-11-20T00:17:37.958Z,5.73
2022-11-20T00:20:05.549Z,5.57
2022-11-20T00:22:32.180Z,6.60
2022-11-20T00:24:58.830Z,5.33
2022-11-20T00:27:25.480Z,6.17
2022-11-20T00:29:52.210Z,4.50
2022-11-20T00:32:18.875Z,6.00
2022-11-20T00:34:45.580Z,5.87
2022-11-20T00:37:12.270Z,5.70
2022-11-20T00:39:38.935Z,5.33
2022-11-20T00:42:05.652Z,6.50
2022-11-20T00:44:32.500Z,6.20
2022-11-20T00:46:59.155Z,5.57
2022-11-20T00:49:25.864Z,4.73
2022-11-20T00:51:52.497Z,5.10
2022-11-20T00:54:19.165Z,6.07
2022-11-20T00:56:45.855Z,6.50
2022-11-20T00:59:12.611Z,6.70
2022-11-20T01:01:39.572Z,6.73
2022-11-20T01:04:06.476Z,7.20
2022-11-20T01:06:35.466Z,7.50
2022-11-20T01:09:08.322Z,7.47
2022-11-20T01:11:38.436Z,7.50
2022-11-20T01:14:07.274Z,7.37
2022-11-20T01:16:37.036Z,7.10
2022-11-20T01:19:06.414Z,5.97
2022-11-20T01:21:38.898Z,6.50
2022-11-20T01:24:08.700Z,6.23
2022-11-20T01:26:39.722Z,6.63
2022-11-20T01:29:07.560Z,6.57
2022-11-20T01:31:38.461Z,6.90
2022-11-20T01:34:07.505Z,6.73
2022-11-20T01:36:36.460Z,6.80
2022-11-20T01:39:07.291Z,6.50
2022-11-20T01:41:53.894Z,6.50
2022-11-20T01:44:23.408Z,7.07
2022-11-20T01:46:59.283Z,6.73
2022-11-20T01:49:38.263Z,6.67
2022-11-20T01:52:10.735Z,7.13
2022-11-20T01:54:42.078Z,6.03
2022-11-20T01:57:10.808Z,6.67
2022-11-20T01:59:42.878Z,6.33
2022-11-20T02:02:09.770Z,6.60
2022-11-20T02:04:36.876Z,6.33
2022-11-20T02:07:06.225Z,6.33
2022-11-20T02:09:33.018Z,6.30
2022-11-20T02:12:00.460Z,5.67
2022-11-20T02:14:27.531Z,6.23
2022-11-20T02:16:55.581Z,6.30
2022-11-20T02:19:30.944Z,5.87
2022-11-20T02:21:57.536Z,5.77
2022-11-20T02:24:24.501Z,5.00
2022-11-20T02:27:13.102Z,5.27
2022-11-20T02:29:45.509Z,5.90
2022-11-20T02:32:34.095Z,6.70
2022-11-20T02:35:19.878Z,6.77
2022-11-20T02:37:49.200Z,7.13
2022-11-20T02:40:15.943Z,6.10
2022-11-20T02:42:42.584Z,7.23
2022-11-20T02:45:10.137Z,6.07
2022-11-20T02:47:37.041Z,6.63
2022-11-20T02:50:04.800Z,5.93
2022-11-20T02:52:31.745Z,5.57
2022-11-20T02:54:58.416Z,5.53
2022-11-20T02:57:25.047Z,6.47
2022-11-20T02:59:51.721Z,6.37
2022-11-20T03:02:18.441Z,7.00
2022-11-20T03:04:45.109Z,6.97
2022-11-20T03:07:11.878Z,6.90
2022-11-20T03:09:38.636Z,7.03
2022-11-20T03:12:05.946Z,6.87
2022-11-20T03:14:32.742Z,7.00
2022-11-20T03:16:59.478Z,7.20
2022-11-20T03:19:26.179Z,7.60
2022-11-20T03:21:52.815Z,7.00
2022-11-20T03:24:19.471Z,6.57
2022-11-20T03:26:46.117Z,6.20
2022-11-20T03:29:12.768Z,6.50
2022-11-20T03:31:41.432Z,6.60
2022-11-20T03:34:10.039Z,5.93
2022-11-20T03:36:43.047Z,5.47
2022-11-20T03:39:09.840Z,6.40
2022-11-20T03:41:38.967Z,5.30
2022-11-20T03:44:07.352Z,5.90
2022-11-20T03:46:34.452Z,6.37
2022-11-20T03:49:01.654Z,5.80
2022-11-20T03:51:30.648Z,5.73
2022-11-20T03:53:59.799Z,6.17
2022-11-20T03:56:30.100Z,5.37
2022-11-20T03:58:57.182Z,5.87
2022-11-20T04:01:26.889Z,5.63
2022-11-20T04:03:55.593Z,5.83
2022-11-20T04:06:25.702Z,5.47
2022-11-20T04:08:54.500Z,6.27
2022-11-20T04:11:29.733Z,5.80
2022-11-20T04:13:59.084Z,6.23
2022-11-20T04:16:27.128Z,6.20
2022-11-20T04:18:58.678Z,5.90
2022-11-20T04:21:27.167Z,5.80
2022-11-20T04:23:54.750Z,6.30
2022-11-20T04:26:23.136Z,5.30
2022-11-20T04:28:50.181Z,5.97
2022-11-20T04:31:20.265Z,6.50
2022-11-20T04:33:47.102Z,5.83
2022-11-20T04:36:16.430Z,6.43
2022-11-20T04:38:43.547Z,6.10
2022-11-20T04:41:17.123Z,5.93
2022-11-20T04:43:49.468Z,5.53
2022-11-20T04:46:20.008Z,5.60
2022-11-20T04:48:48.051Z,6.17
2022-11-20T04:51:14.801Z,5.67
2022-11-20T04:53:41.557Z,6.20
2022-11-20T04:56:11.240Z,6.33
2022-11-20T04:58:38.823Z,6.40
2022-11-20T05:01:12.919Z,6.60
2022-11-20T05:03:44.124Z,6.37
2022-11-20T05:06:13.651Z,6.57
2022-11-20T05:08:40.891Z,6.10
2022-11-20T05:11:10.627Z,6.50
2022-11-20T05:13:38.120Z,6.43
2022-11-20T05:16:07.406Z,6.97
2022-11-20T05:18:35.521Z,5.97
2022-11-20T05:21:02.211Z,5.90
2022-11-20T05:23:30.932Z,6.30
2022-11-20T05:25:59.512Z,6.67
2022-11-20T05:28:27.528Z,6.50
2022-11-20T05:30:54.457Z,6.83
2022-11-20T05:33:21.466Z,6.90
2022-11-20T05:35:49.462Z,6.23
2022-11-20T05:38:16.441Z,6.43
2022-11-20T05:40:43.115Z,6.13
2022-11-20T05:43:09.924Z,5.60
2022-11-20T05:45:36.670Z,6.83
2022-11-20T05:48:03.614Z,6.17
2022-11-20T05:50:30.442Z,5.80
2022-11-20T05:53:00.277Z,6.20
2022-11-20T05:55:27.975Z,6.10
2022-11-20T05:57:55.813Z,6.73
2022-11-20T06:00:23.002Z,6.70
2022-11-20T06:02:49.938Z,5.63
2022-11-20T06:05:16.869Z,4.83
2022-11-20T06:07:43.944Z,4.97
2022-11-20T06:10:10.893Z,4.90
2022-11-20T06:12:37.533Z,4.77
2022-11-20T06:15:05.775Z,5.90
2022-11-20T06:17:32.456Z,4.80
2022-11-20T06:19:59.110Z,5.23
2022-11-20T06:22:25.774Z,4.53
2022-11-20T06:24:52.435Z,5.10
2022-11-20T06:27:19.113Z,4.20
2022-11-20T06:29:45.846Z,4.40
2022-11-20T06:32:12.495Z,4.20
2022-11-20T06:34:39.180Z,4.27
2022-11-20T06:37:06.735Z,4.37
2022-11-20T06:39:33.417Z,3.93
2022-11-20T06:42:00.049Z,3.83
2022-11-20T06:44:27.075Z,4.03
2022-11-20T06:46:53.726Z,4.30
2022-11-20T06:49:20.919Z,4.33
2022-11-20T06:51:47.926Z,4.03
2022-11-20T06:54:14.593Z,3.90
2022-11-20T06:56:41.227Z,4.30
2022-11-20T06:59:08.751Z,4.20
2022-11-20T07:01:35.966Z,3.63
2022-11-20T07:04:03.893Z,3.90
2022-11-20T07:06:30.746Z,3.80
2022-11-20T07:08:57.979Z,3.63
2022-11-20T07:11:24.721Z,3.03
2022-11-20T07:13:51.832Z,3.27
2022-11-20T07:16:18.676Z,3.00
2022-11-20T07:18:50.114Z,2.97
2022-11-20T07:21:17.579Z,3.50
2022-11-20T07:23:44.231Z,3.00
2022-11-20T07:26:11.862Z,3.60
2022-11-20T07:28:39.150Z,3.60
2022-11-20T07:31:07.615Z,3.87
2022-11-20T07:33:34.431Z,4.00
2022-11-20T07:36:01.194Z,3.70
2022-11-20T07:38:28.336Z,3.60
2022-11-20T07:40:56.776Z,3.47
2022-11-20T07:43:23.439Z,4.40
2022-11-20T07:45:50.103Z,4.13
2022-11-20T07:48:16.778Z,6.17
2022-11-20T07:50:43.510Z,4.90
2022-11-20T07:53:10.180Z,5.43
2022-11-20T07:55:37.011Z,3.80
2022-11-20T07:58:03.709Z,4.17
2022-11-20T08:00:30.474Z,3.90
2022-11-20T08:02:57.249Z,4.13
2022-11-20T08:05:24.189Z,4.27
2022-11-20T08:07:50.964Z,4.13
2022-11-20T08:10:18.463Z,4.30
2022-11-20T08:13:10.961Z,4.83
2022-11-20T08:15:39.430Z,6.47
2022-11-20T08:18:31.669Z,5.73
2022-11-20T08:21:03.865Z,5.83
2022-11-20T08:23:31.147Z,6.30
2022-11-20T08:25:57.808Z,5.93
2022-11-20T08:28:24.540Z,6.37
2022-11-20T08:30:51.589Z,5.63
2022-11-20T08:33:19.178Z,5.93
2022-11-20T08:35:46.347Z,6.67
2022-11-20T08:38:13.201Z,6.27
2022-11-20T08:40:39.901Z,6.60
2022-11-20T08:43:06.900Z,5.90
2022-11-20T08:45:35.193Z,6.20
2022-11-20T08:48:04.074Z,6.13
2022-11-20T08:50:32.995Z,7.07
2022-11-20T08:53:06.298Z,6.17
2022-11-20T08:55:33.369Z,5.97
2022-11-20T08:58:04.586Z,6.17
2022-11-20T09:00:31.291Z,6.23
2022-11-20T09:02:59.437Z,7.10
2022-11-20T09:05:26.158Z,6.70
2022-11-20T09:07:52.790Z,5.93
2022-11-20T09:10:24.499Z,6.20
2022-11-20T09:12:53.092Z,6.40
2022-11-20T09:15:20.454Z,6.20
2022-11-20T09:17:59.809Z,5.87
2022-11-20T09:20:29.533Z,6.37
2022-11-20T09:22:56.940Z,6.70
2022-11-20T09:25:23.997Z,6.30
2022-11-20T09:27:56.874Z,6.27
2022-11-20T09:30:23.592Z,6.20
2022-11-20T09:32:50.234Z,5.93
2022-11-20T09:35:16.987Z,6.70
2022-11-20T09:37:43.631Z,6.60
2022-11-20T09:40:29.269Z,6.10
2022-11-20T09:43:16.388Z,6.47
2022-11-20T09:46:09.796Z,5.80
2022-11-20T09:48:58.016Z,5.80
2022-11-20T09:51:42.664Z,5.03
2022-11-20T09:54:32.186Z,5.47
2022-11-20T09:57:06.136Z,5.03
2022-11-20T09:59:54.872Z,6.27
2022-11-20T10:02:25.044Z,4.87
2022-11-20T10:05:04.119Z,4.63
2022-11-20T10:07:44.465Z,5.00
2022-11-20T10:10:22.536Z,4.17
2022-11-20T10:12:52.252Z,4.20
2022-11-20T10:15:27.963Z,3.50
2022-11-20T10:18:26.573Z,4.13
2022-11-20T10:21:02.408Z,2.27
2022-11-20T10:23:50.826Z,2.77
2022-11-20T10:26:33.572Z,2.00
2022-11-20T10:29:16.484Z,2.23
2022-11-20T10:31:48.668Z,1.80
2022-11-20T10:34:32.666Z,1.40
2022-11-20T10:37:10.793Z,1.60
2022-11-20T10:40:15.787Z,2.00
2022-11-20T10:42:56.873Z,1.67
2022-11-20T10:45:26.498Z,2.10
2022-11-20T10:47:57.555Z,1.70
2022-11-20T10:50:24.435Z,2.03
2022-11-20T10:53:03.255Z,2.20
2022-11-20T10:55:49.935Z,2.20
2022-11-20T10:58:47.285Z,1.80
2022-11-20T11:01:19.897Z,2.20
2022-11-20T11:03:47.307Z,2.50
2022-11-20T11:06:44.981Z,1.83
2022-11-20T11:09:21.680Z,1.50
2022-11-20T11:11:48.789Z,1.90
2022-11-20T11:14:16.743Z,2.10
2022-11-20T11:16:55.235Z,1.77
2022-11-20T11:19:22.386Z,2.03
2022-11-20T11:21:55.584Z,1.70
2022-11-20T11:24:41.195Z,1.67
2022-11-20T11:27:17.590Z,1.70
2022-11-20T11:29:45.052Z,1.57
2022-11-20T11:32:22.609Z,1.33
2022-11-20T11:35:07.521Z,2.00
2022-11-20T11:37:39.552Z,1.30
2022-11-20T11:40:24.790Z,1.43
2022-11-20T11:42:58.864Z,1.50
2022-11-20T11:45:26.460Z,1.20
2022-11-20T11:47:55.420Z,1.50
2022-11-20T11:50:27.561Z,1.20
2022-11-20T11:53:00.307Z,1.50
2022-11-20T11:55:55.076Z,1.27
2022-11-20T11:58:46.705Z,1.60
2022-11-20T12:01:31.481Z,1.63
2022-11-20T12:04:37.273Z,1.53
2022-11-20T12:10:23.553Z,1.13
2022-11-20T12:13:25.836Z,1.60
2022-11-20T12:15:52.758Z,1.60
2022-11-20T12:18:21.627Z,1.70
2022-11-20T12:21:13.080Z,2.00
2022-11-20T12:24:04.129Z,1.90
2022-11-20T12:26:58.769Z,1.83
2022-11-20T12:30:23.236Z,2.70
2022-11-20T12:33:21.790Z,1.83
2022-11-20T12:35:51.058Z,2.37
2022-11-20T12:38:48.535Z,2.50
2022-11-20T12:41:49.002Z,2.23
2022-11-20T12:45:11.147Z,1.80
2022-11-20T12:48:03.963Z,2.07
2022-11-20T12:51:00.275Z,2.10
2022-11-20T12:53:45.550Z,2.00
2022-11-20T12:56:15.238Z,1.50
2022-11-20T12:58:50.685Z,1.17
2022-11-20T13:01:48.535Z,1.80
2022-11-20T13:04:39.777Z,1.70
2022-11-20T13:07:10.911Z,1.50
2022-11-20T13:09:44.730Z,1.70
2022-11-20T13:12:41.016Z,1.60
2022-11-20T13:15:32.975Z,1.20
2022-11-20T13:18:02.375Z,1.77
2022-11-20T13:20:31.847Z,2.60
2022-11-20T13:22:59.656Z,1.97
2022-11-20T13:25:33.517Z,1.40
2022-11-20T13:28:04.980Z,1.30
2022-11-20T13:30:32.432Z,1.00
2022-11-20T13:33:07.523Z,1.10
2022-11-20T13:35:37.736Z,1.33
2022-11-20T13:38:11.465Z,1.13
2022-11-20T13:40:50.902Z,0.73
2022-11-20T13:43:40.628Z,1.00
2022-11-20T13:46:09.836Z,1.03
2022-11-20T13:48:42.379Z,1.00
2022-11-20T13:51:30.918Z,1.00
2022-11-20T13:54:25.607Z,0.90
2022-11-20T13:57:30.243Z,0.80
2022-11-20T14:00:18.884Z,1.10
2022-11-20T14:03:14.057Z,1.73
2022-11-20T14:05:49.864Z,1.67
2022-11-20T14:08:27.602Z,1.30
2022-11-20T14:11:20.543Z,1.73
2022-11-20T14:14:01.552Z,1.47
2022-11-20T14:16:30.860Z,1.40
2022-11-20T14:19:15.782Z,2.17
2022-11-20T14:21:42.440Z,3.13
2022-11-20T14:24:13.057Z,3.27
2022-11-20T14:26:44.812Z,1.70
2022-11-20T14:29:17.205Z,1.17
2022-11-20T14:31:49.911Z,1.30
2022-11-20T14:34:28.371Z,1.20
2022-11-20T14:36:59.923Z,1.20
2022-11-20T14:39:37.252Z,0.90
2022-11-20T14:42:18.143Z,0.80
2022-11-20T14:44:45.433Z,0.87
2022-11-20T14:47:14.493Z,1.37
2022-11-20T14:49:42.438Z,1.03
2022-11-20T14:52:23.725Z,1.77
2022-11-20T14:54:53.546Z,1.00
2022-11-20T14:57:23.586Z,1.53
2022-11-20T14:59:50.258Z,4.60
2022-11-20T15:02:17.540Z,3.60
2022-11-20T15:04:51.351Z,2.93
2022-11-20T15:07:29.813Z,4.80
2022-11-20T15:10:10.232Z,3.17
2022-11-20T15:12:46.882Z,3.20
2022-11-20T15:15:17.856Z,1.70
2022-11-20T15:17:44.562Z,2.07
2022-11-20T15:20:15.591Z,2.30
2022-11-20T15:22:42.728Z,2.03
2022-11-20T15:25:17.815Z,1.80
2022-11-20T15:27:45.476Z,1.40
2022-11-20T15:30:22.095Z,1.80
2022-11-20T15:32:49.125Z,2.13
2022-11-20T15:35:16.580Z,1.30
2022-11-20T15:37:43.557Z,1.27
2022-11-20T15:40:11.031Z,2.07
2022-11-20T15:42:37.815Z,2.57
2022-11-20T15:45:04.844Z,2.77
2022-11-20T15:47:35.126Z,2.40
2022-11-20T15:50:02.081Z,2.90
2022-11-20T15:52:40.203Z,2.93
2022-11-20T15:55:11.087Z,3.47
2022-11-20T15:57:37.724Z,3.30
2022-11-20T16:00:04.845Z,1.60
2022-11-20T16:02:37.505Z,3.43
2022-11-20T16:05:04.856Z,1.80
2022-11-20T16:07:31.631Z,1.70
2022-11-20T16:09:58.453Z,1.27
2022-11-20T16:13:03.711Z,1.30
2022-11-20T16:15:45.773Z,2.03
2022-11-20T16:18:20.119Z,1.43
2022-11-20T16:20:50.053Z,1.27
2022-11-20T16:23:16.865Z,1.87
2022-11-20T16:25:44.417Z,1.77
2022-11-20T16:28:17.412Z,1.20
2022-11-20T16:30:45.850Z,1.27
2022-11-20T16:33:14.353Z,1.63
2022-11-20T16:35:41.186Z,1.40
2022-11-20T16:38:08.116Z,1.80
2022-11-20T16:40:35.068Z,1.47
2022-11-20T16:43:10.796Z,1.67
2022-11-20T16:45:45.131Z,1.47
2022-11-20T16:48:16.763Z,2.23
2022-11-20T16:50:51.984Z,2.73
2022-11-20T16:53:20.459Z,2.63
2022-11-20T16:55:47.638Z,2.77
2022-11-20T16:58:15.452Z,2.27
2022-11-20T17:00:45.715Z,1.40
2022-11-20T17:03:17.925Z,2.73
2022-11-20T17:05:44.637Z,1.30
2022-11-20T17:08:11.284Z,1.30
2022-11-20T17:10:37.964Z,1.10
2022-11-20T17:13:04.603Z,1.53
2022-11-20T17:15:31.591Z,14.80
2022-11-20T17:17:58.243Z,2.10
2022-11-20T17:20:24.983Z,1.73
2022-11-20T17:22:51.736Z,1.47
2022-11-20T17:25:18.431Z,1.40
2022-11-20T17:27:45.082Z,1.20
2022-11-20T17:30:11.969Z,1.20
2022-11-20T17:32:39.710Z,1.40
2022-11-20T17:35:06.687Z,1.50
2022-11-20T17:37:33.366Z,2.00
2022-11-20T17:40:00.000Z,2.10
2022-11-20T17:42:26.627Z,1.40
2022-11-20T17:44:53.376Z,1.10
2022-11-20T17:47:20.082Z,1.57
2022-11-20T17:49:46.732Z,1.37
2022-11-20T17:52:13.371Z,1.43
2022-11-20T17:54:40.031Z,1.30
2022-11-20T17:57:25.478Z,1.23
2022-11-20T17:59:52.190Z,1.50
2022-11-20T18:02:18.881Z,1.47
2022-11-20T18:04:45.589Z,1.60
2022-11-20T18:07:12.424Z,1.43
2022-11-20T18:09:39.096Z,0.90
2022-11-20T18:12:06.064Z,1.23
2022-11-20T18:14:33.008Z,1.10
2022-11-20T18:17:13.734Z,1.20
2022-11-20T18:19:55.555Z,1.20
2022-11-20T18:22:29.743Z,1.20
2022-11-20T18:24:56.394Z,1.10
2022-11-20T18:27:23.835Z,1.10
2022-11-20T18:29:53.539Z,1.30
2022-11-20T18:32:21.655Z,1.20
2022-11-20T18:34:48.426Z,1.00
2022-11-20T18:37:16.191Z,1.00
2022-11-20T18:39:43.575Z,1.33
2022-11-20T18:42:32.930Z,0.97
2022-11-20T18:45:00.267Z,1.40
2022-11-20T18:47:30.478Z,1.10
2022-11-20T18:49:59.561Z,0.97
2022-11-20T18:52:45.292Z,1.20
2022-11-20T18:55:12.612Z,1.10
2022-11-20T18:57:39.382Z,0.97
2022-11-20T19:00:09.587Z,1.10
2022-11-20T19:02:41.599Z,1.10
2022-11-20T19:05:13.394Z,1.17
2022-11-20T19:07:40.343Z,0.90
2022-11-20T19:10:07.482Z,1.00
2022-11-20T19:12:34.138Z,0.87
2022-11-20T19:15:00.982Z,1.00
2022-11-20T19:17:27.663Z,1.60
2022-11-20T19:19:55.135Z,1.83
2022-11-20T19:22:22.166Z,1.80
2022-11-20T19:24:49.354Z,1.87
2022-11-20T19:27:16.043Z,1.70
2022-11-20T19:29:42.742Z,1.47
2022-11-20T19:32:09.393Z,1.20
2022-11-20T19:34:36.068Z,1.10
2022-11-20T19:37:02.807Z,1.23
2022-11-20T19:39:29.507Z,1.13
2022-11-20T19:41:56.195Z,1.17
2022-11-20T19:44:22.952Z,1.40
2022-11-20T19:46:50.870Z,2.10
2022-11-20T19:49:17.566Z,1.23
2022-11-20T19:51:47.025Z,1.10
2022-11-20T19:54:14.482Z,1.33
2022-11-20T19:56:41.195Z,1.47
2022-11-20T19:59:07.909Z,1.70
2022-11-20T20:01:35.260Z,1.57
2022-11-20T20:04:03.557Z,1.63
2022-11-20T20:06:31.283Z,1.70
2022-11-20T20:08:59.764Z,1.67
2022-11-20T20:11:28.094Z,1.33
2022-11-20T20:13:55.957Z,1.93
2022-11-20T20:16:24.496Z,2.20
2022-11-20T20:18:58.965Z,2.00
2022-11-20T20:21:25.685Z,1.97
2022-11-20T20:23:54.739Z,1.40
2022-11-20T20:26:23.085Z,1.20
2022-11-20T20:28:50.483Z,1.37
2022-11-20T20:31:21.501Z,1.10
2022-11-20T20:33:48.217Z,1.73
2022-11-20T20:36:16.474Z,1.50
2022-11-20T20:38:44.210Z,1.20
2022-11-20T20:41:10.881Z,1.40
2022-11-20T20:43:56.774Z,1.23
2022-11-20T20:46:24.149Z,0.83
2022-11-20T20:48:54.366Z,1.17
2022-11-20T20:51:22.202Z,0.90
2022-11-20T20:53:49.280Z,1.00
2022-11-20T20:56:16.292Z,1.40
2022-11-20T20:58:43.111Z,1.10
2022-11-20T21:01:12.550Z,1.53
2022-11-20T21:03:39.314Z,1.77
2022-11-20T21:06:07.702Z,1.47
2022-11-20T21:08:36.082Z,1.90
2022-11-20T21:11:13.997Z,1.90
2022-11-20T21:13:42.828Z,1.70
2022-11-20T21:16:10.813Z,2.30
2022-11-20T21:18:37.851Z,1.90
2022-11-20T21:21:27.800Z,1.60
2022-11-20T21:23:54.511Z,1.90
2022-11-20T21:26:21.985Z,2.13
2022-11-20T21:28:49.785Z,2.50
2022-11-20T21:31:18.957Z,2.47
2022-11-20T21:33:47.514Z,2.20
2022-11-20T21:36:20.246Z,1.60
2022-11-20T21:38:48.204Z,1.50
2022-11-20T21:41:15.692Z,1.80
2022-11-20T21:43:44.137Z,1.70
2022-11-20T21:46:13.447Z,1.70
2022-11-20T21:48:41.519Z,1.60
2022-11-20T21:51:10.921Z,2.17
2022-11-20T21:53:38.151Z,2.37
2022-11-20T21:56:06.834Z,1.40
2022-11-20T21:58:35.608Z,1.77
2022-11-20T22:01:26.574Z,1.93
2022-11-20T22:03:57.124Z,1.67
2022-11-20T22:06:26.963Z,1.73
2022-11-20T22:08:53.621Z,1.40
2022-11-20T22:11:22.029Z,1.50
2022-11-20T22:14:08.204Z,1.70
2022-11-20T22:16:36.184Z,1.47
2022-11-20T22:19:03.444Z,1.60
2022-11-20T22:21:31.276Z,1.53
2022-11-20T22:23:58.349Z,1.60
2022-11-20T22:26:30.239Z,1.63
2022-11-20T22:28:58.672Z,1.53
2022-11-20T22:31:27.953Z,1.30
2022-11-20T22:33:55.262Z,1.63
2022-11-20T22:36:29.938Z,1.77
2022-11-20T22:38:57.475Z,1.60
2022-11-20T22:41:27.220Z,1.93
2022-11-20T22:44:04.963Z,1.90
2022-11-20T22:46:35.387Z,2.30
2022-11-20T22:49:04.727Z,1.60
2022-11-20T22:51:34.043Z,1.93
2022-11-20T22:54:01.213Z,1.73
2022-11-20T22:56:27.891Z,1.80
2022-11-20T22:58:55.004Z,1.87
2022-11-20T23:01:29.647Z,1.90
2022-11-20T23:04:01.548Z,1.97
2022-11-20T23:06:29.355Z,1.53
2022-11-20T23:08:56.603Z,2.03
2022-11-20T23:11:29.187Z,1.57
2022-11-20T23:14:01.897Z,1.63
2022-11-20T23:16:30.035Z,1.97
2022-11-20T23:18:58.998Z,1.90
2022-11-20T23:21:26.295Z,1.80
2022-11-20T23:23:55.612Z,1.53
2022-11-20T23:26:25.038Z,1.73
2022-11-20T23:28:54.306Z,1.63
2022-11-20T23:31:21.592Z,1.70
2022-11-20T23:33:48.249Z,1.27
2022-11-20T23:36:15.423Z,1.70
2022-11-20T23:38:42.366Z,2.00
2022-11-20T23:41:09.388Z,1.83
2022-11-20T23:43:36.154Z,2.37
2022-11-20T23:46:04.123Z,2.30
2022-11-20T23:48:35.409Z,1.83
2022-11-20T23:51:03.043Z,1.77
2022-11-20T23:53:29.740Z,1.67
2022-11-20T23:55:58.839Z,2.30
2022-11-20T23:58:30.100Z,1.80
